KBAD/BAD METAR and TAF weather

Enter ICAO airport designator
Station Type Date Time Source
KBAD METAR 2018/12/12 22:59 UTC NOAA

KBAD 122259Z 16005KT 10SM BKN040 BKN050 14/10 A2997 RMK AO2A SLPNO WND DATA ESTMD ALSTG ESTMD $


Station Type Date Time Source
KBAD Decoded METAR 2018/12/12 22:59 UTC NOAA

Barksdale Air Force Base, LA, United States (KBAD) 32-30N 093-40W
Dec 12, 2018 - 05:59 PM EST / 2018.12.12 2259 UTC
Wind: from the SSE (160 degrees) at 6 MPH (5 KT):0
Visibility: 10 mile(s):0
Sky conditions: mostly cloudy
Temperature: 57 F (14 C)
Dew Point: 50 F (10 C)
Relative Humidity: 76%
Pressure (altimeter): 29.97 in. Hg (1014 hPa)
ob: KBAD 122259Z 16005KT 10SM BKN040 BKN050 14/10 A2997 RMK AO2A SLPNO WND DATA ESTMD ALSTG ESTMD
cycle: 23

Station Type Date Time Source
KBAD TAF 2018/12/12 18:09 UTC NOAA

TAF TAF KBAD 121800Z 1218/1324 16010G15KT 9999 BKN050 QNH3000INS
BECMG 1301/1302 16006KT 9999 OVC030 QNH2985INS
BECMG 1310/1311 17010KT 8000 -SHRA OVC010 QNH2983INS
BECMG 1315/1316 15010G20KT 8000 -SHRA OVC008 QNH2980INS TX16/1221Z TN13/1312Z


Example: see airport list